South Beach, OR

3:18 AM PDT on September 18, 2014 (GMT -0700)
Ed & Pams Station | Change Station
CLOSE
Current Station
Personal Weather Station
Location: Siletz, OR
Elevation: 95 ft
Nearby Weather Stations

Elev 95 ft 44.80 °N, 123.90 °W | Updated 9 seconds ago

Light Rain
Light Rain
58.5 °F
Feels Like 58.5 °F
N
0.0
Wind Variable Wind from West
Gusts 3.0 mph

Today
High -- | Low -- °F
--% Chance of Precip.
Yesterday
High -- | Low -- °F
Precip. -- in
6:58 AM 7:20 PM
Waning Crescent, 28% visible
Pressure 29.78 in
Visibility 7.0 miles
Clouds Overcast 5000 ft
Dew Point 58 °F
Humidity 97%
Rainfall 0.02 in
Snow Depth 1 in , 0 in , 0 in
UV 0 out of 12
Pollen 1.30 out of 12
Air Quality Not available.
Flu Activity Not available.
METAR KONP 180955Z AUTO 09004KT 7SM -RA OVC050 14/13 A2978 RMK AO2 P0002

More Conditions Fewer Conditions

Pressure 29.78 in
Visibility 7.0 miles
Clouds Overcast 5000 ft
Dew Point 58 °F
Humidity 97%
Rainfall 0.02 in
Snow Depth 1 in , 0 in , 0 in
UV 0 out of 12
Pollen 1.30 out of 12
Air Quality Not available.
Flu Activity Not available.
METAR KONP 180955Z AUTO 09004KT 7SM -RA OVC050 14/13 A2978 RMK AO2 P0002

More Conditions Fewer Conditions

10-Day Weather Forecast

Almanac

Astronomy

Sep. 18, 2014 Rise Set
Actual Time 6:58 AM PDT 7:20 PM PDT
Civil Twilight 6:29 AM PDT 7:50 PM PDT
Nautical Twilight 5:55 AM PDT 8:24 PM PDT
Astronomical Twilight 5:19 AM PDT 8:59 PM PDT
Moon 1:46 AM PDT 4:24 PM PDT
Length of Visible Light 13h 20m
Length of Day
12h 22m
Tomorrow will be 3m 3s shorter.
Waning Crescent, 28% of the Moon is Illuminated
Today
Waning Crescent
Sep 24
New
Oct 1
First Quarter
Oct 8
Full
Oct 15
Last Quarter

Today's Extremes

State Highs State Lows

Community

WunderPhotos

Upload Photos

1,754,314 photos uploaded!

Nearby

Snow Depth

Station Depth Elevation
Greenpoint 1 in 3200 ft
Roaring River 0 in 4900 ft
Clackamas Lake 0 in 3400 ft
Annie Springs 0 in 6020 ft
Hogg Pass 0 in 4760 ft

Earthquake Activity

City Distance Mag. Time & Date
Morton, Washington 146 miles 3.0 5:43 AM PDT
2014-09-16
Minimum magnitude displayed is 2.5.

Coastal Water Temperatures

Place Temperature
South Beach, OR 57.0 °F
Charleston, OR 53.1 °F

Nearby Weather Stations